sensor_id;sensor_type;location;lat;lon;timestamp;P1;durP1;ratioP1;P2;durP2;ratioP2
43552;SDS011;29153;42.696;23.218;2023-05-29T00:00:51;6.28;;;2.92;;
43552;SDS011;29153;42.696;23.218;2023-05-29T00:03:19;6.70;;;3.47;;
43552;SDS011;29153;42.696;23.218;2023-05-29T00:05:47;5.97;;;2.70;;
43552;SDS011;29153;42.696;23.218;2023-05-29T00:08:15;5.35;;;2.70;;
43552;SDS011;29153;42.696;23.218;2023-05-29T00:10:42;5.83;;;3.42;;
43552;SDS011;29153;42.696;23.218;2023-05-29T00:13:10;10.08;;;3.62;;
43552;SDS011;29153;42.696;23.218;2023-05-29T00:15:40;6.15;;;2.85;;
43552;SDS011;29153;42.696;23.218;2023-05-29T00:18:08;7.35;;;2.55;;
43552;SDS011;29153;42.696;23.218;2023-05-29T00:20:36;7.80;;;2.60;;
43552;SDS011;29153;42.696;23.218;2023-05-29T00:23:03;5.08;;;2.65;;
43552;SDS011;29153;42.696;23.218;2023-05-29T00:25:32;5.35;;;2.75;;
43552;SDS011;29153;42.696;23.218;2023-05-29T00:27:59;5.03;;;3.00;;
43552;SDS011;29153;42.696;23.218;2023-05-29T00:30:27;7.10;;;3.05;;
43552;SDS011;29153;42.696;23.218;2023-05-29T00:32:54;6.92;;;3.60;;
43552;SDS011;29153;42.696;23.218;2023-05-29T00:35:22;7.78;;;3.40;;
43552;SDS011;29153;42.696;23.218;2023-05-29T00:37:49;6.75;;;3.50;;
43552;SDS011;29153;42.696;23.218;2023-05-29T00:40:20;5.58;;;3.12;;
43552;SDS011;29153;42.696;23.218;2023-05-29T00:42:48;8.75;;;3.50;;
43552;SDS011;29153;42.696;23.218;2023-05-29T00:45:15;5.90;;;3.30;;
43552;SDS011;29153;42.696;23.218;2023-05-29T00:47:43;7.60;;;2.92;;
43552;SDS011;29153;42.696;23.218;2023-05-29T00:50:12;8.75;;;3.80;;
43552;SDS011;29153;42.696;23.218;2023-05-29T00:52:44;7.53;;;3.33;;
43552;SDS011;29153;42.696;23.218;2023-05-29T00:55:12;8.23;;;3.80;;
43552;SDS011;29153;42.696;23.218;2023-05-29T00:57:42;5.87;;;2.77;;
43552;SDS011;29153;42.696;23.218;2023-05-29T01:00:11;7.53;;;3.72;;
43552;SDS011;29153;42.696;23.218;2023-05-29T01:02:40;6.67;;;3.20;;
43552;SDS011;29153;42.696;23.218;2023-05-29T01:05:10;12.78;;;3.62;;
43552;SDS011;29153;42.696;23.218;2023-05-29T01:10:05;6.60;;;2.95;;
43552;SDS011;29153;42.696;23.218;2023-05-29T01:12:38;8.28;;;2.90;;
43552;SDS011;29153;42.696;23.218;2023-05-29T01:15:27;6.25;;;3.52;;
43552;SDS011;29153;42.696;23.218;2023-05-29T01:18:17;7.15;;;2.90;;
43552;SDS011;29153;42.696;23.218;2023-05-29T01:23:52;7.15;;;3.22;;
43552;SDS011;29153;42.696;23.218;2023-05-29T01:26:29;7.37;;;3.27;;
43552;SDS011;29153;42.696;23.218;2023-05-29T01:29:00;6.17;;;3.70;;
43552;SDS011;29153;42.696;23.218;2023-05-29T01:31:29;7.47;;;3.37;;
43552;SDS011;29153;42.696;23.218;2023-05-29T01:33:58;5.37;;;3.40;;
43552;SDS011;29153;42.696;23.218;2023-05-29T01:36:26;5.50;;;3.12;;
43552;SDS011;29153;42.696;23.218;2023-05-29T01:38:55;6.28;;;3.50;;
43552;SDS011;29153;42.696;23.218;2023-05-29T01:41:24;6.25;;;3.37;;
43552;SDS011;29153;42.696;23.218;2023-05-29T01:43:53;7.37;;;3.45;;
43552;SDS011;29153;42.696;23.218;2023-05-29T01:46:22;5.70;;;2.90;;
43552;SDS011;29153;42.696;23.218;2023-05-29T01:48:53;6.30;;;3.70;;
43552;SDS011;29153;42.696;23.218;2023-05-29T01:51:23;6.22;;;3.55;;
43552;SDS011;29153;42.696;23.218;2023-05-29T01:53:51;11.63;;;3.37;;
43552;SDS011;29153;42.696;23.218;2023-05-29T01:56:19;6.22;;;4.10;;
43552;SDS011;29153;42.696;23.218;2023-05-29T01:58:48;7.37;;;3.90;;
43552;SDS011;29153;42.696;23.218;2023-05-29T02:01:17;8.50;;;3.70;;
43552;SDS011;29153;42.696;23.218;2023-05-29T02:03:46;7.20;;;3.47;;
43552;SDS011;29153;42.696;23.218;2023-05-29T02:06:13;6.35;;;3.67;;
43552;SDS011;29153;42.696;23.218;2023-05-29T02:08:41;5.50;;;3.55;;
43552;SDS011;29153;42.696;23.218;2023-05-29T02:11:09;7.55;;;4.65;;
43552;SDS011;29153;42.696;23.218;2023-05-29T02:13:36;7.75;;;3.22;;
43552;SDS011;29153;42.696;23.218;2023-05-29T02:16:04;7.78;;;3.42;;
43552;SDS011;29153;42.696;23.218;2023-05-29T02:18:32;6.12;;;3.40;;
43552;SDS011;29153;42.696;23.218;2023-05-29T02:21:00;8.10;;;3.47;;
43552;SDS011;29153;42.696;23.218;2023-05-29T02:23:27;6.08;;;3.22;;
43552;SDS011;29153;42.696;23.218;2023-05-29T02:25:55;8.13;;;3.75;;
43552;SDS011;29153;42.696;23.218;2023-05-29T02:28:22;5.95;;;3.87;;
43552;SDS011;29153;42.696;23.218;2023-05-29T02:30:50;6.35;;;3.70;;
43552;SDS011;29153;42.696;23.218;2023-05-29T02:33:17;6.50;;;3.40;;
43552;SDS011;29153;42.696;23.218;2023-05-29T02:35:45;7.10;;;3.10;;
43552;SDS011;29153;42.696;23.218;2023-05-29T02:38:13;7.70;;;3.00;;
43552;SDS011;29153;42.696;23.218;2023-05-29T02:40:41;6.60;;;3.12;;
43552;SDS011;29153;42.696;23.218;2023-05-29T02:43:09;6.78;;;3.65;;
43552;SDS011;29153;42.696;23.218;2023-05-29T02:45:38;6.10;;;3.00;;
43552;SDS011;29153;42.696;23.218;2023-05-29T02:48:05;7.92;;;3.35;;
43552;SDS011;29153;42.696;23.218;2023-05-29T02:50:33;5.45;;;2.90;;
43552;SDS011;29153;42.696;23.218;2023-05-29T02:53:00;7.22;;;3.70;;
43552;SDS011;29153;42.696;23.218;2023-05-29T02:55:28;6.80;;;3.25;;
43552;SDS011;29153;42.696;23.218;2023-05-29T02:57:57;7.25;;;3.95;;
43552;SDS011;29153;42.696;23.218;2023-05-29T03:00:26;7.42;;;3.35;;
43552;SDS011;29153;42.696;23.218;2023-05-29T03:02:54;5.90;;;3.47;;
43552;SDS011;29153;42.696;23.218;2023-05-29T03:05:21;6.92;;;3.40;;
43552;SDS011;29153;42.696;23.218;2023-05-29T03:07:49;6.83;;;3.92;;
43552;SDS011;29153;42.696;23.218;2023-05-29T03:10:17;6.95;;;3.62;;
43552;SDS011;29153;42.696;23.218;2023-05-29T03:12:44;6.47;;;3.92;;
43552;SDS011;29153;42.696;23.218;2023-05-29T03:15:12;9.08;;;3.62;;
43552;SDS011;29153;42.696;23.218;2023-05-29T03:17:40;9.78;;;4.00;;
43552;SDS011;29153;42.696;23.218;2023-05-29T03:20:08;7.60;;;3.72;;
43552;SDS011;29153;42.696;23.218;2023-05-29T03:22:36;8.45;;;4.53;;
43552;SDS011;29153;42.696;23.218;2023-05-29T03:25:04;7.58;;;4.40;;
43552;SDS011;29153;42.696;23.218;2023-05-29T03:27:31;9.43;;;4.50;;
43552;SDS011;29153;42.696;23.218;2023-05-29T03:29:59;6.90;;;4.60;;
43552;SDS011;29153;42.696;23.218;2023-05-29T03:32:27;9.75;;;4.67;;
43552;SDS011;29153;42.696;23.218;2023-05-29T03:34:54;11.45;;;5.28;;
43552;SDS011;29153;42.696;23.218;2023-05-29T03:39:50;10.20;;;4.33;;
43552;SDS011;29153;42.696;23.218;2023-05-29T03:42:17;8.95;;;5.10;;
43552;SDS011;29153;42.696;23.218;2023-05-29T03:44:45;11.85;;;5.00;;
43552;SDS011;29153;42.696;23.218;2023-05-29T03:47:12;10.93;;;5.10;;
43552;SDS011;29153;42.696;23.218;2023-05-29T03:49:40;7.97;;;4.30;;
43552;SDS011;29153;42.696;23.218;2023-05-29T03:52:07;7.70;;;4.30;;
43552;SDS011;29153;42.696;23.218;2023-05-29T03:54:35;8.80;;;4.37;;
43552;SDS011;29153;42.696;23.218;2023-05-29T03:57:03;9.53;;;4.30;;
43552;SDS011;29153;42.696;23.218;2023-05-29T03:59:32;13.65;;;5.33;;
43552;SDS011;29153;42.696;23.218;2023-05-29T04:01:59;8.48;;;4.70;;
43552;SDS011;29153;42.696;23.218;2023-05-29T04:04:27;9.90;;;5.78;;
43552;SDS011;29153;42.696;23.218;2023-05-29T04:09:24;8.55;;;4.67;;
43552;SDS011;29153;42.696;23.218;2023-05-29T04:11:53;8.60;;;4.85;;
43552;SDS011;29153;42.696;23.218;2023-05-29T04:14:21;10.55;;;5.53;;
43552;SDS011;29153;42.696;23.218;2023-05-29T04:16:49;11.90;;;5.75;;
43552;SDS011;29153;42.696;23.218;2023-05-29T04:19:16;9.40;;;6.35;;
43552;SDS011;29153;42.696;23.218;2023-05-29T04:21:44;14.15;;;6.28;;
43552;SDS011;29153;42.696;23.218;2023-05-29T04:24:17;13.72;;;5.70;;
43552;SDS011;29153;42.696;23.218;2023-05-29T04:26:42;13.90;;;5.80;;
43552;SDS011;29153;42.696;23.218;2023-05-29T04:29:11;13.88;;;6.65;;
43552;SDS011;29153;42.696;23.218;2023-05-29T04:31:39;11.88;;;6.92;;
43552;SDS011;29153;42.696;23.218;2023-05-29T04:34:06;13.83;;;6.47;;
43552;SDS011;29153;42.696;23.218;2023-05-29T04:36:34;11.45;;;6.00;;
43552;SDS011;29153;42.696;23.218;2023-05-29T04:39:05;10.10;;;6.00;;
43552;SDS011;29153;42.696;23.218;2023-05-29T04:41:33;13.00;;;6.15;;
43552;SDS011;29153;42.696;23.218;2023-05-29T04:44:01;13.30;;;6.33;;
43552;SDS011;29153;42.696;23.218;2023-05-29T04:46:29;13.00;;;8.78;;
43552;SDS011;29153;42.696;23.218;2023-05-29T04:48:57;15.03;;;8.03;;
43552;SDS011;29153;42.696;23.218;2023-05-29T04:51:24;14.68;;;7.60;;
43552;SDS011;29153;42.696;23.218;2023-05-29T04:53:54;13.20;;;7.05;;
43552;SDS011;29153;42.696;23.218;2023-05-29T04:58:48;11.08;;;6.95;;
43552;SDS011;29153;42.696;23.218;2023-05-29T05:01:16;13.40;;;7.55;;
43552;SDS011;29153;42.696;23.218;2023-05-29T05:03:44;14.18;;;7.60;;
43552;SDS011;29153;42.696;23.218;2023-05-29T05:06:12;10.95;;;5.80;;
43552;SDS011;29153;42.696;23.218;2023-05-29T05:08:41;11.65;;;6.83;;
43552;SDS011;29153;42.696;23.218;2023-05-29T05:11:09;10.68;;;6.40;;
43552;SDS011;29153;42.696;23.218;2023-05-29T05:16:03;10.18;;;6.40;;
43552;SDS011;29153;42.696;23.218;2023-05-29T05:18:31;11.10;;;6.30;;
43552;SDS011;29153;42.696;23.218;2023-05-29T05:20:59;11.38;;;6.62;;
43552;SDS011;29153;42.696;23.218;2023-05-29T05:23:28;10.23;;;5.40;;
43552;SDS011;29153;42.696;23.218;2023-05-29T05:25:56;14.38;;;6.08;;
43552;SDS011;29153;42.696;23.218;2023-05-29T05:28:25;12.93;;;6.60;;
43552;SDS011;29153;42.696;23.218;2023-05-29T05:30:53;16.23;;;6.87;;
43552;SDS011;29153;42.696;23.218;2023-05-29T05:33:20;12.73;;;6.20;;
43552;SDS011;29153;42.696;23.218;2023-05-29T05:35:48;13.60;;;6.37;;
43552;SDS011;29153;42.696;23.218;2023-05-29T05:38:15;13.00;;;6.60;;
43552;SDS011;29153;42.696;23.218;2023-05-29T05:54:34;15.45;;;7.90;;
43552;SDS011;29153;42.696;23.218;2023-05-29T05:57:01;9.05;;;5.97;;
43552;SDS011;29153;42.696;23.218;2023-05-29T05:59:29;7.85;;;4.30;;
43552;SDS011;29153;42.696;23.218;2023-05-29T06:01:56;7.22;;;4.45;;
43552;SDS011;29153;42.696;23.218;2023-05-29T06:04:24;7.30;;;4.70;;
43552;SDS011;29153;42.696;23.218;2023-05-29T06:06:51;8.05;;;4.67;;
43552;SDS011;29153;42.696;23.218;2023-05-29T06:09:19;9.15;;;5.22;;
43552;SDS011;29153;42.696;23.218;2023-05-29T06:11:47;8.95;;;4.53;;
43552;SDS011;29153;42.696;23.218;2023-05-29T06:14:15;10.10;;;5.35;;
43552;SDS011;29153;42.696;23.218;2023-05-29T06:16:43;5.85;;;3.30;;
43552;SDS011;29153;42.696;23.218;2023-05-29T06:21:38;6.47;;;3.27;;
43552;SDS011;29153;42.696;23.218;2023-05-29T06:24:05;6.00;;;3.45;;
43552;SDS011;29153;42.696;23.218;2023-05-29T06:26:33;8.90;;;3.75;;
43552;SDS011;29153;42.696;23.218;2023-05-29T06:29:03;10.13;;;4.10;;
43552;SDS011;29153;42.696;23.218;2023-05-29T06:31:31;7.33;;;3.65;;
43552;SDS011;29153;42.696;23.218;2023-05-29T06:33:59;6.40;;;4.03;;
43552;SDS011;29153;42.696;23.218;2023-05-29T06:36:27;6.30;;;3.47;;
43552;SDS011;29153;42.696;23.218;2023-05-29T06:38:54;7.15;;;3.85;;
43552;SDS011;29153;42.696;23.218;2023-05-29T06:41:22;8.55;;;4.20;;
43552;SDS011;29153;42.696;23.218;2023-05-29T06:46:17;6.58;;;4.00;;
43552;SDS011;29153;42.696;23.218;2023-05-29T06:48:44;9.63;;;4.00;;
43552;SDS011;29153;42.696;23.218;2023-05-29T06:51:14;5.85;;;3.08;;
43552;SDS011;29153;42.696;23.218;2023-05-29T06:53:42;5.40;;;3.08;;
43552;SDS011;29153;42.696;23.218;2023-05-29T06:56:10;6.70;;;3.37;;
43552;SDS011;29153;42.696;23.218;2023-05-29T06:58:37;4.03;;;2.65;;
43552;SDS011;29153;42.696;23.218;2023-05-29T07:01:05;4.30;;;2.25;;
43552;SDS011;29153;42.696;23.218;2023-05-29T07:03:33;5.53;;;2.92;;
43552;SDS011;29153;42.696;23.218;2023-05-29T07:06:01;6.00;;;2.65;;
43552;SDS011;29153;42.696;23.218;2023-05-29T07:10:56;5.00;;;1.95;;
43552;SDS011;29153;42.696;23.218;2023-05-29T07:13:24;4.12;;;2.10;;
43552;SDS011;29153;42.696;23.218;2023-05-29T07:15:52;5.00;;;2.00;;
43552;SDS011;29153;42.696;23.218;2023-05-29T07:18:20;3.90;;;2.02;;
43552;SDS011;29153;42.696;23.218;2023-05-29T07:20:47;4.03;;;1.90;;
43552;SDS011;29153;42.696;23.218;2023-05-29T07:23:15;5.85;;;1.90;;
43552;SDS011;29153;42.696;23.218;2023-05-29T07:25:43;5.20;;;1.40;;
43552;SDS011;29153;42.696;23.218;2023-05-29T07:28:10;6.42;;;1.12;;
43552;SDS011;29153;42.696;23.218;2023-05-29T07:30:38;3.20;;;1.55;;
43552;SDS011;29153;42.696;23.218;2023-05-29T07:33:05;3.98;;;1.55;;
43552;SDS011;29153;42.696;23.218;2023-05-29T07:35:33;4.30;;;1.60;;
43552;SDS011;29153;42.696;23.218;2023-05-29T07:38:01;3.10;;;1.77;;
43552;SDS011;29153;42.696;23.218;2023-05-29T07:40:28;2.50;;;1.12;;
43552;SDS011;29153;42.696;23.218;2023-05-29T07:42:56;3.83;;;1.40;;
43552;SDS011;29153;42.696;23.218;2023-05-29T07:45:23;4.60;;;1.37;;
43552;SDS011;29153;42.696;23.218;2023-05-29T07:47:51;5.10;;;1.82;;
43552;SDS011;29153;42.696;23.218;2023-05-29T07:50:18;3.20;;;1.10;;
43552;SDS011;29153;42.696;23.218;2023-05-29T07:52:46;2.72;;;1.52;;
43552;SDS011;29153;42.696;23.218;2023-05-29T07:55:14;3.77;;;1.45;;
43552;SDS011;29153;42.696;23.218;2023-05-29T07:57:41;5.25;;;1.35;;
43552;SDS011;29153;42.696;23.218;2023-05-29T08:00:09;3.02;;;1.50;;
43552;SDS011;29153;42.696;23.218;2023-05-29T08:02:38;3.40;;;1.70;;
43552;SDS011;29153;42.696;23.218;2023-05-29T08:05:08;2.70;;;1.22;;
43552;SDS011;29153;42.696;23.218;2023-05-29T08:10:03;4.03;;;1.45;;
43552;SDS011;29153;42.696;23.218;2023-05-29T08:12:31;4.67;;;1.85;;
43552;SDS011;29153;42.696;23.218;2023-05-29T08:15:00;4.17;;;2.02;;
43552;SDS011;29153;42.696;23.218;2023-05-29T08:17:29;2.98;;;1.30;;
43552;SDS011;29153;42.696;23.218;2023-05-29T08:19:58;3.20;;;1.40;;
43552;SDS011;29153;42.696;23.218;2023-05-29T08:22:29;3.98;;;1.50;;
43552;SDS011;29153;42.696;23.218;2023-05-29T08:24:57;2.85;;;1.50;;
43552;SDS011;29153;42.696;23.218;2023-05-29T08:27:25;3.58;;;1.62;;
43552;SDS011;29153;42.696;23.218;2023-05-29T08:29:52;3.77;;;1.65;;
43552;SDS011;29153;42.696;23.218;2023-05-29T08:32:20;2.25;;;1.25;;
43552;SDS011;29153;42.696;23.218;2023-05-29T08:34:47;5.20;;;1.80;;
43552;SDS011;29153;42.696;23.218;2023-05-29T08:37:15;2.55;;;1.50;;
43552;SDS011;29153;42.696;23.218;2023-05-29T08:39:43;2.83;;;1.35;;
43552;SDS011;29153;42.696;23.218;2023-05-29T08:44:42;3.12;;;1.22;;
43552;SDS011;29153;42.696;23.218;2023-05-29T08:47:14;2.67;;;1.50;;
43552;SDS011;29153;42.696;23.218;2023-05-29T08:49:45;3.22;;;1.52;;
43552;SDS011;29153;42.696;23.218;2023-05-29T08:52:16;6.22;;;1.32;;
43552;SDS011;29153;42.696;23.218;2023-05-29T08:54:45;3.83;;;1.62;;
43552;SDS011;29153;42.696;23.218;2023-05-29T08:57:13;5.10;;;2.05;;
43552;SDS011;29153;42.696;23.218;2023-05-29T08:59:46;3.98;;;2.35;;
43552;SDS011;29153;42.696;23.218;2023-05-29T09:02:11;3.85;;;1.90;;
43552;SDS011;29153;42.696;23.218;2023-05-29T09:07:07;4.50;;;2.25;;
43552;SDS011;29153;42.696;23.218;2023-05-29T09:09:35;3.95;;;1.95;;
43552;SDS011;29153;42.696;23.218;2023-05-29T09:12:03;3.25;;;2.10;;
43552;SDS011;29153;42.696;23.218;2023-05-29T09:17:09;3.35;;;2.10;;
43552;SDS011;29153;42.696;23.218;2023-05-29T09:19:38;5.30;;;2.37;;
43552;SDS011;29153;42.696;23.218;2023-05-29T09:22:06;5.67;;;1.95;;
43552;SDS011;29153;42.696;23.218;2023-05-29T09:24:37;6.10;;;2.25;;
43552;SDS011;29153;42.696;23.218;2023-05-29T09:27:10;3.75;;;1.82;;
43552;SDS011;29153;42.696;23.218;2023-05-29T09:32:09;4.42;;;2.02;;
43552;SDS011;29153;42.696;23.218;2023-05-29T09:34:38;3.55;;;2.00;;
43552;SDS011;29153;42.696;23.218;2023-05-29T09:37:07;4.85;;;1.90;;
43552;SDS011;29153;42.696;23.218;2023-05-29T09:42:12;3.98;;;2.25;;
43552;SDS011;29153;42.696;23.218;2023-05-29T09:44:42;4.03;;;2.50;;
43552;SDS011;29153;42.696;23.218;2023-05-29T09:47:16;4.08;;;2.50;;
43552;SDS011;29153;42.696;23.218;2023-05-29T09:49:44;4.50;;;2.70;;
43552;SDS011;29153;42.696;23.218;2023-05-29T09:52:13;4.37;;;2.42;;
43552;SDS011;29153;42.696;23.218;2023-05-29T09:54:41;5.33;;;2.45;;
43552;SDS011;29153;42.696;23.218;2023-05-29T09:57:13;3.75;;;1.92;;
43552;SDS011;29153;42.696;23.218;2023-05-29T09:59:45;3.80;;;2.08;;
43552;SDS011;29153;42.696;23.218;2023-05-29T10:02:17;4.67;;;1.67;;
43552;SDS011;29153;42.696;23.218;2023-05-29T10:04:47;7.03;;;2.37;;
43552;SDS011;29153;42.696;23.218;2023-05-29T10:07:22;4.17;;;1.90;;
43552;SDS011;29153;42.696;23.218;2023-05-29T10:09:46;3.47;;;2.00;;
43552;SDS011;29153;42.696;23.218;2023-05-29T10:12:17;5.22;;;2.33;;
43552;SDS011;29153;42.696;23.218;2023-05-29T10:14:49;5.90;;;2.10;;
43552;SDS011;29153;42.696;23.218;2023-05-29T10:17:18;4.62;;;2.75;;
43552;SDS011;29153;42.696;23.218;2023-05-29T10:19:49;4.05;;;2.40;;
43552;SDS011;29153;42.696;23.218;2023-05-29T10:22:19;4.78;;;2.47;;
43552;SDS011;29153;42.696;23.218;2023-05-29T10:24:49;5.20;;;2.37;;
43552;SDS011;29153;42.696;23.218;2023-05-29T10:27:18;5.60;;;2.30;;
43552;SDS011;29153;42.696;23.218;2023-05-29T10:29:52;9.13;;;2.30;;
43552;SDS011;29153;42.696;23.218;2023-05-29T10:32:29;4.03;;;2.08;;
43552;SDS011;29153;42.696;23.218;2023-05-29T10:37:44;12.23;;;3.25;;
43552;SDS011;29153;42.696;23.218;2023-05-29T10:40:26;3.80;;;2.30;;
43552;SDS011;29153;42.696;23.218;2023-05-29T10:50:40;3.08;;;1.90;;
43552;SDS011;29153;42.696;23.218;2023-05-29T10:53:08;5.05;;;2.37;;
43552;SDS011;29153;42.696;23.218;2023-05-29T10:55:37;5.35;;;2.37;;
43552;SDS011;29153;42.696;23.218;2023-05-29T10:58:06;5.33;;;1.92;;
43552;SDS011;29153;42.696;23.218;2023-05-29T11:00:39;5.20;;;2.55;;
43552;SDS011;29153;42.696;23.218;2023-05-29T11:03:15;4.70;;;2.50;;
43552;SDS011;29153;42.696;23.218;2023-05-29T11:11:15;4.90;;;2.47;;
43552;SDS011;29153;42.696;23.218;2023-05-29T11:13:56;5.30;;;2.50;;
43552;SDS011;29153;42.696;23.218;2023-05-29T11:19:08;4.60;;;1.98;;
43552;SDS011;29153;42.696;23.218;2023-05-29T11:24:21;5.12;;;2.30;;
43552;SDS011;29153;42.696;23.218;2023-05-29T11:26:54;6.00;;;2.30;;
43552;SDS011;29153;42.696;23.218;2023-05-29T11:29:26;4.55;;;2.30;;
43552;SDS011;29153;42.696;23.218;2023-05-29T11:31:57;5.55;;;2.30;;
43552;SDS011;29153;42.696;23.218;2023-05-29T11:34:29;5.72;;;2.42;;
43552;SDS011;29153;42.696;23.218;2023-05-29T11:36:58;5.40;;;2.33;;
43552;SDS011;29153;42.696;23.218;2023-05-29T11:39:27;5.10;;;2.50;;
43552;SDS011;29153;42.696;23.218;2023-05-29T11:41:56;4.87;;;2.42;;
43552;SDS011;29153;42.696;23.218;2023-05-29T11:44:24;3.85;;;2.30;;
43552;SDS011;29153;42.696;23.218;2023-05-29T11:47:05;4.65;;;2.30;;
43552;SDS011;29153;42.696;23.218;2023-05-29T11:49:34;5.25;;;2.22;;
43552;SDS011;29153;42.696;23.218;2023-05-29T11:52:09;5.20;;;2.62;;
43552;SDS011;29153;42.696;23.218;2023-05-29T11:54:41;6.83;;;2.62;;
43552;SDS011;29153;42.696;23.218;2023-05-29T11:57:10;6.33;;;2.87;;
43552;SDS011;29153;42.696;23.218;2023-05-29T11:59:37;5.70;;;3.08;;
43552;SDS011;29153;42.696;23.218;2023-05-29T12:02:05;7.17;;;2.72;;
43552;SDS011;29153;42.696;23.218;2023-05-29T12:04:33;5.10;;;2.30;;
43552;SDS011;29153;42.696;23.218;2023-05-29T12:07:00;5.15;;;2.40;;
43552;SDS011;29153;42.696;23.218;2023-05-29T12:09:28;7.80;;;2.58;;
43552;SDS011;29153;42.696;23.218;2023-05-29T12:12:02;4.85;;;2.30;;
43552;SDS011;29153;42.696;23.218;2023-05-29T12:14:32;6.40;;;2.72;;
43552;SDS011;29153;42.696;23.218;2023-05-29T12:17:00;6.55;;;2.62;;
43552;SDS011;29153;42.696;23.218;2023-05-29T12:19:27;6.10;;;2.42;;
43552;SDS011;29153;42.696;23.218;2023-05-29T12:21:56;4.60;;;2.70;;
43552;SDS011;29153;42.696;23.218;2023-05-29T12:24:24;5.20;;;1.98;;
43552;SDS011;29153;42.696;23.218;2023-05-29T12:26:52;4.83;;;2.27;;
43552;SDS011;29153;42.696;23.218;2023-05-29T12:29:19;6.37;;;2.60;;
43552;SDS011;29153;42.696;23.218;2023-05-29T12:31:56;7.67;;;2.98;;
43552;SDS011;29153;42.696;23.218;2023-05-29T12:34:19;10.15;;;3.95;;
43552;SDS011;29153;42.696;23.218;2023-05-29T12:36:46;11.00;;;3.77;;
43552;SDS011;29153;42.696;23.218;2023-05-29T12:39:14;5.08;;;3.12;;
43552;SDS011;29153;42.696;23.218;2023-05-29T12:41:41;7.12;;;2.95;;
43552;SDS011;29153;42.696;23.218;2023-05-29T12:44:09;6.90;;;3.80;;
43552;SDS011;29153;42.696;23.218;2023-05-29T12:46:37;6.10;;;3.67;;
43552;SDS011;29153;42.696;23.218;2023-05-29T12:49:19;8.50;;;3.30;;
43552;SDS011;29153;42.696;23.218;2023-05-29T12:51:45;6.42;;;3.12;;
43552;SDS011;29153;42.696;23.218;2023-05-29T12:56:41;6.05;;;3.10;;
43552;SDS011;29153;42.696;23.218;2023-05-29T12:59:09;6.70;;;4.53;;
43552;SDS011;29153;42.696;23.218;2023-05-29T13:01:37;7.47;;;3.02;;
43552;SDS011;29153;42.696;23.218;2023-05-29T13:04:06;7.87;;;4.47;;
43552;SDS011;29153;42.696;23.218;2023-05-29T13:06:34;6.00;;;3.22;;
43552;SDS011;29153;42.696;23.218;2023-05-29T13:09:03;5.72;;;3.25;;
43552;SDS011;29153;42.696;23.218;2023-05-29T13:11:33;5.17;;;3.00;;
43552;SDS011;29153;42.696;23.218;2023-05-29T13:14:00;5.15;;;3.00;;
43552;SDS011;29153;42.696;23.218;2023-05-29T13:16:28;6.65;;;2.67;;
43552;SDS011;29153;42.696;23.218;2023-05-29T13:18:55;5.25;;;2.30;;
43552;SDS011;29153;42.696;23.218;2023-05-29T13:21:23;5.10;;;2.60;;
43552;SDS011;29153;42.696;23.218;2023-05-29T13:23:50;3.95;;;2.05;;
43552;SDS011;29153;42.696;23.218;2023-05-29T13:26:18;5.22;;;2.35;;
43552;SDS011;29153;42.696;23.218;2023-05-29T13:28:47;6.08;;;2.70;;
43552;SDS011;29153;42.696;23.218;2023-05-29T13:31:14;7.95;;;2.70;;
43552;SDS011;29153;42.696;23.218;2023-05-29T13:33:42;6.10;;;2.85;;
43552;SDS011;29153;42.696;23.218;2023-05-29T13:36:10;4.90;;;2.55;;
43552;SDS011;29153;42.696;23.218;2023-05-29T13:38:38;6.40;;;2.37;;
43552;SDS011;29153;42.696;23.218;2023-05-29T13:41:05;4.37;;;1.95;;
43552;SDS011;29153;42.696;23.218;2023-05-29T13:43:33;3.47;;;1.57;;
43552;SDS011;29153;42.696;23.218;2023-05-29T13:46:01;6.33;;;2.50;;
43552;SDS011;29153;42.696;23.218;2023-05-29T13:48:29;2.33;;;1.10;;
43552;SDS011;29153;42.696;23.218;2023-05-29T13:50:58;1.70;;;0.72;;
43552;SDS011;29153;42.696;23.218;2023-05-29T13:53:25;2.10;;;0.90;;
43552;SDS011;29153;42.696;23.218;2023-05-29T13:55:53;1.90;;;0.70;;
43552;SDS011;29153;42.696;23.218;2023-05-29T13:58:20;5.12;;;0.85;;
43552;SDS011;29153;42.696;23.218;2023-05-29T14:00:48;1.40;;;0.62;;
43552;SDS011;29153;42.696;23.218;2023-05-29T14:03:15;1.95;;;0.40;;
43552;SDS011;29153;42.696;23.218;2023-05-29T14:05:44;2.05;;;1.00;;
43552;SDS011;29153;42.696;23.218;2023-05-29T14:08:11;3.47;;;0.80;;
43552;SDS011;29153;42.696;23.218;2023-05-29T14:10:39;1.72;;;0.50;;
43552;SDS011;29153;42.696;23.218;2023-05-29T14:13:06;1.90;;;0.70;;
43552;SDS011;29153;42.696;23.218;2023-05-29T14:15:34;1.60;;;0.62;;
43552;SDS011;29153;42.696;23.218;2023-05-29T14:18:02;3.83;;;0.40;;
43552;SDS011;29153;42.696;23.218;2023-05-29T14:20:30;2.08;;;0.28;;
43552;SDS011;29153;42.696;23.218;2023-05-29T14:22:58;2.27;;;0.45;;
43552;SDS011;29153;42.696;23.218;2023-05-29T14:25:25;2.65;;;0.70;;
43552;SDS011;29153;42.696;23.218;2023-05-29T14:27:53;2.92;;;0.50;;
43552;SDS011;29153;42.696;23.218;2023-05-29T14:30:20;1.17;;;0.30;;
43552;SDS011;29153;42.696;23.218;2023-05-29T14:32:48;2.72;;;0.50;;
43552;SDS011;29153;42.696;23.218;2023-05-29T14:35:16;2.47;;;0.65;;
43552;SDS011;29153;42.696;23.218;2023-05-29T14:37:43;2.42;;;0.90;;
43552;SDS011;29153;42.696;23.218;2023-05-29T14:40:11;2.12;;;0.65;;
43552;SDS011;29153;42.696;23.218;2023-05-29T14:42:40;2.40;;;0.80;;
43552;SDS011;29153;42.696;23.218;2023-05-29T14:45:08;3.30;;;0.50;;
43552;SDS011;29153;42.696;23.218;2023-05-29T14:47:35;3.47;;;0.90;;
43552;SDS011;29153;42.696;23.218;2023-05-29T14:50:03;4.90;;;1.50;;
43552;SDS011;29153;42.696;23.218;2023-05-29T14:52:32;3.58;;;1.20;;
43552;SDS011;29153;42.696;23.218;2023-05-29T14:55:01;4.62;;;1.70;;
43552;SDS011;29153;42.696;23.218;2023-05-29T14:57:30;2.70;;;1.00;;
43552;SDS011;29153;42.696;23.218;2023-05-29T14:59:59;3.70;;;1.22;;
43552;SDS011;29153;42.696;23.218;2023-05-29T15:02:27;5.95;;;0.80;;
43552;SDS011;29153;42.696;23.218;2023-05-29T15:04:55;4.80;;;1.30;;
43552;SDS011;29153;42.696;23.218;2023-05-29T15:07:22;3.60;;;1.00;;
43552;SDS011;29153;42.696;23.218;2023-05-29T15:09:50;5.22;;;1.30;;
43552;SDS011;29153;42.696;23.218;2023-05-29T15:12:17;3.42;;;1.32;;
43552;SDS011;29153;42.696;23.218;2023-05-29T15:14:45;4.05;;;1.30;;
43552;SDS011;29153;42.696;23.218;2023-05-29T15:17:12;2.85;;;1.50;;
43552;SDS011;29153;42.696;23.218;2023-05-29T15:19:40;4.60;;;2.10;;
43552;SDS011;29153;42.696;23.218;2023-05-29T15:22:07;4.15;;;1.90;;
43552;SDS011;29153;42.696;23.218;2023-05-29T15:24:35;6.00;;;2.60;;
43552;SDS011;29153;42.696;23.218;2023-05-29T15:29:32;5.33;;;2.67;;
43552;SDS011;29153;42.696;23.218;2023-05-29T15:32:02;7.22;;;2.47;;
43552;SDS011;29153;42.696;23.218;2023-05-29T15:34:33;5.05;;;2.52;;
43552;SDS011;29153;42.696;23.218;2023-05-29T15:37:01;7.80;;;1.75;;
43552;SDS011;29153;42.696;23.218;2023-05-29T15:39:29;4.58;;;2.15;;
43552;SDS011;29153;42.696;23.218;2023-05-29T15:41:56;3.52;;;2.08;;
43552;SDS011;29153;42.696;23.218;2023-05-29T15:44:24;4.15;;;2.77;;
43552;SDS011;29153;42.696;23.218;2023-05-29T15:46:52;3.62;;;2.10;;
43552;SDS011;29153;42.696;23.218;2023-05-29T15:49:19;6.15;;;2.40;;
43552;SDS011;29153;42.696;23.218;2023-05-29T15:51:50;5.70;;;3.00;;
43552;SDS011;29153;42.696;23.218;2023-05-29T15:54:17;5.05;;;2.80;;
43552;SDS011;29153;42.696;23.218;2023-05-29T15:56:45;4.08;;;2.75;;
43552;SDS011;29153;42.696;23.218;2023-05-29T15:59:13;6.50;;;3.12;;